sensor_id;sensor_type;location;lat;lon;timestamp;temperature;humidity
5723;DHT22;2886;49.722;8.612;2023-12-04T00:01:49;-2.40;99.90
5723;DHT22;2886;49.722;8.612;2023-12-04T00:04:15;-2.40;99.90
5723;DHT22;2886;49.722;8.612;2023-12-04T00:06:43;-2.40;99.90
5723;DHT22;2886;49.722;8.612;2023-12-04T00:09:09;-2.50;99.90
5723;DHT22;2886;49.722;8.612;2023-12-04T00:11:34;-2.50;99.90
5723;DHT22;2886;49.722;8.612;2023-12-04T00:14:00;-2.60;99.90
5723;DHT22;2886;49.722;8.612;2023-12-04T00:16:26;-2.60;99.90
5723;DHT22;2886;49.722;8.612;2023-12-04T00:18:52;-2.70;99.90
5723;DHT22;2886;49.722;8.612;2023-12-04T00:21:17;-2.70;99.90
5723;DHT22;2886;49.722;8.612;2023-12-04T00:23:43;-2.80;99.90
5723;DHT22;2886;49.722;8.612;2023-12-04T00:26:09;-2.80;99.90
5723;DHT22;2886;49.722;8.612;2023-12-04T00:28:37;-2.70;99.90
5723;DHT22;2886;49.722;8.612;2023-12-04T00:31:03;-2.70;99.90
5723;DHT22;2886;49.722;8.612;2023-12-04T00:33:28;-2.80;99.90
5723;DHT22;2886;49.722;8.612;2023-12-04T00:35:54;-2.80;99.90
5723;DHT22;2886;49.722;8.612;2023-12-04T00:38:20;-2.90;99.90
5723;DHT22;2886;49.722;8.612;2023-12-04T00:40:45;-2.90;99.90
5723;DHT22;2886;49.722;8.612;2023-12-04T00:43:11;-2.90;99.90
5723;DHT22;2886;49.722;8.612;2023-12-04T00:45:36;-3.00;99.90
5723;DHT22;2886;49.722;8.612;2023-12-04T00:48:02;-3.00;99.90
5723;DHT22;2886;49.722;8.612;2023-12-04T00:50:28;-3.10;99.90
5723;DHT22;2886;49.722;8.612;2023-12-04T00:52:54;-3.10;99.90
5723;DHT22;2886;49.722;8.612;2023-12-04T00:55:19;-3.10;99.90
5723;DHT22;2886;49.722;8.612;2023-12-04T00:57:45;-3.20;99.90
5723;DHT22;2886;49.722;8.612;2023-12-04T01:00:11;-3.10;99.90
5723;DHT22;2886;49.722;8.612;2023-12-04T01:02:37;-3.10;99.90
5723;DHT22;2886;49.722;8.612;2023-12-04T01:05:03;-3.20;99.90
5723;DHT22;2886;49.722;8.612;2023-12-04T01:07:29;-3.20;99.90
5723;DHT22;2886;49.722;8.612;2023-12-04T01:09:54;-3.20;99.90
5723;DHT22;2886;49.722;8.612;2023-12-04T01:12:20;-3.20;99.90
5723;DHT22;2886;49.722;8.612;2023-12-04T01:14:47;-3.20;99.90
5723;DHT22;2886;49.722;8.612;2023-12-04T01:17:12;-3.30;99.90
5723;DHT22;2886;49.722;8.612;2023-12-04T01:19:38;-3.20;99.90
5723;DHT22;2886;49.722;8.612;2023-12-04T01:22:04;-3.20;99.90
5723;DHT22;2886;49.722;8.612;2023-12-04T01:24:30;-3.20;99.90
5723;DHT22;2886;49.722;8.612;2023-12-04T01:26:56;-3.20;99.90
5723;DHT22;2886;49.722;8.612;2023-12-04T01:29:22;-3.20;99.90
5723;DHT22;2886;49.722;8.612;2023-12-04T01:31:47;-3.30;99.90
5723;DHT22;2886;49.722;8.612;2023-12-04T01:34:13;-3.30;99.90
5723;DHT22;2886;49.722;8.612;2023-12-04T01:36:41;-3.30;99.90
5723;DHT22;2886;49.722;8.612;2023-12-04T01:39:07;-3.30;99.90
5723;DHT22;2886;49.722;8.612;2023-12-04T01:41:33;-3.30;99.90
5723;DHT22;2886;49.722;8.612;2023-12-04T01:43:58;-3.30;99.90
5723;DHT22;2886;49.722;8.612;2023-12-04T01:46:24;-3.30;99.90
5723;DHT22;2886;49.722;8.612;2023-12-04T01:48:50;-3.30;99.90
5723;DHT22;2886;49.722;8.612;2023-12-04T01:51:17;-3.40;99.90
5723;DHT22;2886;49.722;8.612;2023-12-04T01:53:43;-3.40;99.90
5723;DHT22;2886;49.722;8.612;2023-12-04T01:56:09;-3.40;99.90
5723;DHT22;2886;49.722;8.612;2023-12-04T01:58:35;-3.40;99.90
5723;DHT22;2886;49.722;8.612;2023-12-04T02:01:02;-3.40;99.90
5723;DHT22;2886;49.722;8.612;2023-12-04T02:03:28;-3.40;99.90
5723;DHT22;2886;49.722;8.612;2023-12-04T02:05:54;-3.30;99.90
5723;DHT22;2886;49.722;8.612;2023-12-04T02:08:24;-3.30;99.90
5723;DHT22;2886;49.722;8.612;2023-12-04T02:10:50;-3.30;99.90
5723;DHT22;2886;49.722;8.612;2023-12-04T02:13:15;-3.30;99.90
5723;DHT22;2886;49.722;8.612;2023-12-04T02:15:42;-3.30;99.90
5723;DHT22;2886;49.722;8.612;2023-12-04T02:18:07;-3.40;99.90
5723;DHT22;2886;49.722;8.612;2023-12-04T02:20:34;-3.30;99.90
5723;DHT22;2886;49.722;8.612;2023-12-04T02:23:01;-3.30;99.90
5723;DHT22;2886;49.722;8.612;2023-12-04T02:25:27;-3.30;99.90
5723;DHT22;2886;49.722;8.612;2023-12-04T02:27:54;-3.30;99.90
5723;DHT22;2886;49.722;8.612;2023-12-04T02:30:23;-3.20;99.90
5723;DHT22;2886;49.722;8.612;2023-12-04T02:32:50;-3.10;99.90
5723;DHT22;2886;49.722;8.612;2023-12-04T02:35:20;-3.10;99.90
5723;DHT22;2886;49.722;8.612;2023-12-04T02:37:47;-3.00;99.90
5723;DHT22;2886;49.722;8.612;2023-12-04T02:40:15;-2.90;99.90
5723;DHT22;2886;49.722;8.612;2023-12-04T02:42:41;-3.00;99.90
5723;DHT22;2886;49.722;8.612;2023-12-04T02:45:07;-3.00;99.90
5723;DHT22;2886;49.722;8.612;2023-12-04T02:47:32;-3.00;99.90
5723;DHT22;2886;49.722;8.612;2023-12-04T02:49:59;-3.10;99.90
5723;DHT22;2886;49.722;8.612;2023-12-04T02:52:25;-3.10;99.90
5723;DHT22;2886;49.722;8.612;2023-12-04T02:54:50;-3.20;99.90
5723;DHT22;2886;49.722;8.612;2023-12-04T02:57:16;-3.10;99.90
5723;DHT22;2886;49.722;8.612;2023-12-04T02:59:41;-3.10;99.90
5723;DHT22;2886;49.722;8.612;2023-12-04T03:02:07;-3.10;99.90
5723;DHT22;2886;49.722;8.612;2023-12-04T03:04:34;-3.20;99.90
5723;DHT22;2886;49.722;8.612;2023-12-04T03:06:59;-3.20;99.90
5723;DHT22;2886;49.722;8.612;2023-12-04T03:09:25;-3.20;99.90
5723;DHT22;2886;49.722;8.612;2023-12-04T03:11:50;-3.20;99.90
5723;DHT22;2886;49.722;8.612;2023-12-04T03:14:16;-3.20;99.90
5723;DHT22;2886;49.722;8.612;2023-12-04T03:16:42;-3.20;99.90
5723;DHT22;2886;49.722;8.612;2023-12-04T03:19:07;-3.10;99.90
5723;DHT22;2886;49.722;8.612;2023-12-04T03:21:33;-3.10;99.90
5723;DHT22;2886;49.722;8.612;2023-12-04T03:23:58;-3.10;99.90
5723;DHT22;2886;49.722;8.612;2023-12-04T03:26:24;-3.10;99.90
5723;DHT22;2886;49.722;8.612;2023-12-04T03:28:50;-3.00;99.90
5723;DHT22;2886;49.722;8.612;2023-12-04T03:31:15;-3.00;99.90
5723;DHT22;2886;49.722;8.612;2023-12-04T03:33:41;-3.00;99.90
5723;DHT22;2886;49.722;8.612;2023-12-04T03:36:07;-3.00;99.90
5723;DHT22;2886;49.722;8.612;2023-12-04T03:38:33;-3.00;99.90
5723;DHT22;2886;49.722;8.612;2023-12-04T03:40:59;-2.90;99.90
5723;DHT22;2886;49.722;8.612;2023-12-04T03:43:24;-2.90;99.90
5723;DHT22;2886;49.722;8.612;2023-12-04T03:45:50;-2.90;99.90
5723;DHT22;2886;49.722;8.612;2023-12-04T03:48:15;-2.90;99.90
5723;DHT22;2886;49.722;8.612;2023-12-04T03:50:41;-3.00;99.90
5723;DHT22;2886;49.722;8.612;2023-12-04T03:53:07;-2.90;99.90
5723;DHT22;2886;49.722;8.612;2023-12-04T03:55:32;-2.90;99.90
5723;DHT22;2886;49.722;8.612;2023-12-04T03:57:58;-3.00;99.90
5723;DHT22;2886;49.722;8.612;2023-12-04T04:00:24;-3.10;99.90
5723;DHT22;2886;49.722;8.612;2023-12-04T04:02:50;-3.10;99.90
5723;DHT22;2886;49.722;8.612;2023-12-04T04:05:16;-3.10;99.90
5723;DHT22;2886;49.722;8.612;2023-12-04T04:07:41;-3.10;99.90
5723;DHT22;2886;49.722;8.612;2023-12-04T04:10:08;-3.10;99.90
5723;DHT22;2886;49.722;8.612;2023-12-04T04:12:34;-3.00;99.90
5723;DHT22;2886;49.722;8.612;2023-12-04T04:14:59;-3.10;99.90
5723;DHT22;2886;49.722;8.612;2023-12-04T04:17:25;-3.10;99.90
5723;DHT22;2886;49.722;8.612;2023-12-04T04:19:54;-3.10;99.90
5723;DHT22;2886;49.722;8.612;2023-12-04T04:22:20;-3.10;99.90
5723;DHT22;2886;49.722;8.612;2023-12-04T04:24:47;-3.10;99.90
5723;DHT22;2886;49.722;8.612;2023-12-04T04:27:13;-3.10;99.90
5723;DHT22;2886;49.722;8.612;2023-12-04T04:29:38;-3.10;99.90
5723;DHT22;2886;49.722;8.612;2023-12-04T04:32:04;-3.00;99.90
5723;DHT22;2886;49.722;8.612;2023-12-04T04:34:32;-2.90;99.90
5723;DHT22;2886;49.722;8.612;2023-12-04T04:36:58;-2.90;99.90
5723;DHT22;2886;49.722;8.612;2023-12-04T04:39:31;-2.90;99.90
5723;DHT22;2886;49.722;8.612;2023-12-04T04:41:56;-2.90;99.90
5723;DHT22;2886;49.722;8.612;2023-12-04T04:44:22;-2.90;99.90
5723;DHT22;2886;49.722;8.612;2023-12-04T04:46:47;-2.90;99.90
5723;DHT22;2886;49.722;8.612;2023-12-04T04:49:13;-2.90;99.90
5723;DHT22;2886;49.722;8.612;2023-12-04T04:51:39;-2.90;99.90
5723;DHT22;2886;49.722;8.612;2023-12-04T04:54:04;-2.90;99.90
5723;DHT22;2886;49.722;8.612;2023-12-04T04:56:30;-2.80;99.90
5723;DHT22;2886;49.722;8.612;2023-12-04T04:58:56;-2.70;99.90
5723;DHT22;2886;49.722;8.612;2023-12-04T05:01:21;-2.70;99.90
5723;DHT22;2886;49.722;8.612;2023-12-04T05:03:47;-2.80;99.90
5723;DHT22;2886;49.722;8.612;2023-12-04T05:06:13;-2.80;99.90
5723;DHT22;2886;49.722;8.612;2023-12-04T05:08:39;-2.90;99.90
5723;DHT22;2886;49.722;8.612;2023-12-04T05:11:05;-2.90;99.90
5723;DHT22;2886;49.722;8.612;2023-12-04T05:13:30;-2.90;99.90
5723;DHT22;2886;49.722;8.612;2023-12-04T05:15:56;-2.90;99.90
5723;DHT22;2886;49.722;8.612;2023-12-04T05:18:22;-2.80;99.90
5723;DHT22;2886;49.722;8.612;2023-12-04T05:20:47;-2.80;99.90
5723;DHT22;2886;49.722;8.612;2023-12-04T05:23:13;-2.90;99.90
5723;DHT22;2886;49.722;8.612;2023-12-04T05:25:38;-2.90;99.90
5723;DHT22;2886;49.722;8.612;2023-12-04T05:28:04;-3.00;99.90
5723;DHT22;2886;49.722;8.612;2023-12-04T05:30:30;-3.00;99.90
5723;DHT22;2886;49.722;8.612;2023-12-04T05:32:56;-3.00;99.90
5723;DHT22;2886;49.722;8.612;2023-12-04T05:35:21;-3.00;99.90
5723;DHT22;2886;49.722;8.612;2023-12-04T05:37:47;-3.00;99.90
5723;DHT22;2886;49.722;8.612;2023-12-04T05:40:13;-3.00;99.90
5723;DHT22;2886;49.722;8.612;2023-12-04T05:42:39;-3.10;99.90
5723;DHT22;2886;49.722;8.612;2023-12-04T05:45:05;-3.10;99.90
5723;DHT22;2886;49.722;8.612;2023-12-04T05:47:32;-3.00;99.90
5723;DHT22;2886;49.722;8.612;2023-12-04T05:49:58;-3.00;99.90
5723;DHT22;2886;49.722;8.612;2023-12-04T05:52:23;-2.90;99.90
5723;DHT22;2886;49.722;8.612;2023-12-04T05:54:49;-2.90;99.90
5723;DHT22;2886;49.722;8.612;2023-12-04T05:57:14;-2.90;99.90
5723;DHT22;2886;49.722;8.612;2023-12-04T05:59:41;-2.90;99.90
5723;DHT22;2886;49.722;8.612;2023-12-04T06:02:07;-3.00;99.90
5723;DHT22;2886;49.722;8.612;2023-12-04T06:04:32;-3.00;99.90
5723;DHT22;2886;49.722;8.612;2023-12-04T06:06:58;-3.10;99.90
5723;DHT22;2886;49.722;8.612;2023-12-04T06:09:24;-3.10;99.90
5723;DHT22;2886;49.722;8.612;2023-12-04T06:11:49;-3.10;99.90
5723;DHT22;2886;49.722;8.612;2023-12-04T06:14:15;-3.10;99.90
5723;DHT22;2886;49.722;8.612;2023-12-04T06:16:40;-3.10;99.90
5723;DHT22;2886;49.722;8.612;2023-12-04T06:19:06;-3.10;99.90
5723;DHT22;2886;49.722;8.612;2023-12-04T06:21:31;-3.20;99.90
5723;DHT22;2886;49.722;8.612;2023-12-04T06:23:58;-3.10;99.90
5723;DHT22;2886;49.722;8.612;2023-12-04T06:26:24;-3.10;99.90
5723;DHT22;2886;49.722;8.612;2023-12-04T06:28:50;-3.10;99.90
5723;DHT22;2886;49.722;8.612;2023-12-04T06:31:16;-3.20;99.90
5723;DHT22;2886;49.722;8.612;2023-12-04T06:33:41;-3.10;99.90
5723;DHT22;2886;49.722;8.612;2023-12-04T06:36:08;-3.10;99.90
5723;DHT22;2886;49.722;8.612;2023-12-04T06:38:39;-3.20;99.90
5723;DHT22;2886;49.722;8.612;2023-12-04T06:41:06;-3.10;99.90
5723;DHT22;2886;49.722;8.612;2023-12-04T06:43:32;-3.00;99.90
5723;DHT22;2886;49.722;8.612;2023-12-04T06:45:58;-3.10;99.90
5723;DHT22;2886;49.722;8.612;2023-12-04T06:48:24;-3.10;99.90
5723;DHT22;2886;49.722;8.612;2023-12-04T06:50:50;-3.00;99.90
5723;DHT22;2886;49.722;8.612;2023-12-04T06:53:16;-3.00;99.90
5723;DHT22;2886;49.722;8.612;2023-12-04T06:55:41;-2.80;99.90
5723;DHT22;2886;49.722;8.612;2023-12-04T06:58:07;-2.80;99.90
5723;DHT22;2886;49.722;8.612;2023-12-04T07:00:32;-2.80;99.90
5723;DHT22;2886;49.722;8.612;2023-12-04T07:02:58;-2.80;99.90
5723;DHT22;2886;49.722;8.612;2023-12-04T07:05:24;-2.90;99.90
5723;DHT22;2886;49.722;8.612;2023-12-04T07:07:49;-2.80;99.90
5723;DHT22;2886;49.722;8.612;2023-12-04T07:10:15;-2.90;99.90
5723;DHT22;2886;49.722;8.612;2023-12-04T07:12:41;-2.90;99.90
5723;DHT22;2886;49.722;8.612;2023-12-04T07:15:08;-2.80;99.90
5723;DHT22;2886;49.722;8.612;2023-12-04T07:17:37;-2.70;99.90
5723;DHT22;2886;49.722;8.612;2023-12-04T07:20:04;-2.70;99.90
5723;DHT22;2886;49.722;8.612;2023-12-04T07:22:33;-2.60;99.90
5723;DHT22;2886;49.722;8.612;2023-12-04T07:24:59;-2.50;99.90
5723;DHT22;2886;49.722;8.612;2023-12-04T07:27:24;-2.50;99.90
5723;DHT22;2886;49.722;8.612;2023-12-04T07:29:50;-2.50;99.90
5723;DHT22;2886;49.722;8.612;2023-12-04T07:32:19;-2.40;99.90
5723;DHT22;2886;49.722;8.612;2023-12-04T07:34:45;-2.40;99.90
5723;DHT22;2886;49.722;8.612;2023-12-04T07:37:10;-2.40;99.90
5723;DHT22;2886;49.722;8.612;2023-12-04T07:39:36;-2.40;99.90
5723;DHT22;2886;49.722;8.612;2023-12-04T07:42:02;-2.40;99.90
5723;DHT22;2886;49.722;8.612;2023-12-04T07:44:27;-2.30;99.90
5723;DHT22;2886;49.722;8.612;2023-12-04T07:46:53;-2.30;99.90
5723;DHT22;2886;49.722;8.612;2023-12-04T07:49:19;-2.20;99.90
5723;DHT22;2886;49.722;8.612;2023-12-04T07:51:44;-2.20;99.90
5723;DHT22;2886;49.722;8.612;2023-12-04T07:54:10;-2.10;99.90
5723;DHT22;2886;49.722;8.612;2023-12-04T07:56:35;-2.00;99.90
5723;DHT22;2886;49.722;8.612;2023-12-04T07:59:01;-2.00;99.90
5723;DHT22;2886;49.722;8.612;2023-12-04T08:01:26;-1.90;99.90
5723;DHT22;2886;49.722;8.612;2023-12-04T08:03:52;-2.00;99.90
5723;DHT22;2886;49.722;8.612;2023-12-04T08:06:18;-1.90;99.90
5723;DHT22;2886;49.722;8.612;2023-12-04T08:08:44;-1.90;99.90
5723;DHT22;2886;49.722;8.612;2023-12-04T08:11:10;-1.80;99.90
5723;DHT22;2886;49.722;8.612;2023-12-04T08:13:38;-1.80;99.90
5723;DHT22;2886;49.722;8.612;2023-12-04T08:16:04;-1.70;99.90
5723;DHT22;2886;49.722;8.612;2023-12-04T08:18:30;-1.70;99.90
5723;DHT22;2886;49.722;8.612;2023-12-04T08:20:55;-1.60;99.90
5723;DHT22;2886;49.722;8.612;2023-12-04T08:23:21;-1.60;99.90
5723;DHT22;2886;49.722;8.612;2023-12-04T08:25:46;-1.60;99.90
5723;DHT22;2886;49.722;8.612;2023-12-04T08:28:12;-1.50;99.90
5723;DHT22;2886;49.722;8.612;2023-12-04T08:30:38;-1.60;99.90
5723;DHT22;2886;49.722;8.612;2023-12-04T08:33:04;-1.50;99.90
5723;DHT22;2886;49.722;8.612;2023-12-04T08:35:29;-1.40;99.90
5723;DHT22;2886;49.722;8.612;2023-12-04T08:37:55;-1.30;99.90
5723;DHT22;2886;49.722;8.612;2023-12-04T08:40:21;-1.20;99.90
5723;DHT22;2886;49.722;8.612;2023-12-04T08:42:46;-1.20;99.90
5723;DHT22;2886;49.722;8.612;2023-12-04T08:45:12;-1.20;99.90
5723;DHT22;2886;49.722;8.612;2023-12-04T08:47:38;-1.10;99.90
5723;DHT22;2886;49.722;8.612;2023-12-04T08:50:04;-1.00;99.90
5723;DHT22;2886;49.722;8.612;2023-12-04T08:52:30;-1.00;99.90
5723;DHT22;2886;49.722;8.612;2023-12-04T08:54:56;-1.00;99.90
5723;DHT22;2886;49.722;8.612;2023-12-04T08:57:21;-1.00;99.90
5723;DHT22;2886;49.722;8.612;2023-12-04T08:59:47;-0.90;99.90
5723;DHT22;2886;49.722;8.612;2023-12-04T09:02:13;-0.80;99.90
5723;DHT22;2886;49.722;8.612;2023-12-04T09:04:38;-0.80;99.90
5723;DHT22;2886;49.722;8.612;2023-12-04T09:07:04;-0.70;99.90
5723;DHT22;2886;49.722;8.612;2023-12-04T09:09:29;-0.70;99.90
5723;DHT22;2886;49.722;8.612;2023-12-04T09:11:55;-0.70;99.90
5723;DHT22;2886;49.722;8.612;2023-12-04T09:14:20;-0.70;99.90
5723;DHT22;2886;49.722;8.612;2023-12-04T09:16:46;-0.60;99.90
5723;DHT22;2886;49.722;8.612;2023-12-04T09:19:11;-0.60;99.90
5723;DHT22;2886;49.722;8.612;2023-12-04T09:21:37;-0.60;99.90
5723;DHT22;2886;49.722;8.612;2023-12-04T09:24:03;-0.60;99.90
5723;DHT22;2886;49.722;8.612;2023-12-04T09:26:28;-0.60;99.90
5723;DHT22;2886;49.722;8.612;2023-12-04T09:28:54;-0.60;99.90
5723;DHT22;2886;49.722;8.612;2023-12-04T09:31:20;-0.50;99.90
5723;DHT22;2886;49.722;8.612;2023-12-04T09:33:45;-0.50;99.90
5723;DHT22;2886;49.722;8.612;2023-12-04T09:36:12;-0.40;99.90
5723;DHT22;2886;49.722;8.612;2023-12-04T09:38:39;-0.40;99.90
5723;DHT22;2886;49.722;8.612;2023-12-04T09:41:06;-0.50;99.90
5723;DHT22;2886;49.722;8.612;2023-12-04T09:43:33;-0.50;99.90
5723;DHT22;2886;49.722;8.612;2023-12-04T09:45:59;-0.50;99.90
5723;DHT22;2886;49.722;8.612;2023-12-04T09:48:28;-0.50;99.90
5723;DHT22;2886;49.722;8.612;2023-12-04T09:50:57;-0.40;99.90
5723;DHT22;2886;49.722;8.612;2023-12-04T09:53:23;-0.40;99.90
5723;DHT22;2886;49.722;8.612;2023-12-04T09:55:50;-0.40;99.90
5723;DHT22;2886;49.722;8.612;2023-12-04T09:58:19;-0.50;99.90
5723;DHT22;2886;49.722;8.612;2023-12-04T10:00:45;-0.40;99.90
5723;DHT22;2886;49.722;8.612;2023-12-04T10:03:11;-0.40;99.90
5723;DHT22;2886;49.722;8.612;2023-12-04T10:05:38;-0.40;99.90
5723;DHT22;2886;49.722;8.612;2023-12-04T10:08:04;-0.40;99.90
5723;DHT22;2886;49.722;8.612;2023-12-04T10:10:29;-0.40;99.90
5723;DHT22;2886;49.722;8.612;2023-12-04T10:12:55;-0.40;99.90
5723;DHT22;2886;49.722;8.612;2023-12-04T10:15:21;-0.40;99.90
5723;DHT22;2886;49.722;8.612;2023-12-04T10:17:46;-0.40;99.90
5723;DHT22;2886;49.722;8.612;2023-12-04T10:20:13;-0.20;99.90
5723;DHT22;2886;49.722;8.612;2023-12-04T10:22:59;0.00;99.90
5723;DHT22;2886;49.722;8.612;2023-12-04T10:25:27;0.10;99.90
5723;DHT22;2886;49.722;8.612;2023-12-04T10:27:54;0.20;99.90
5723;DHT22;2886;49.722;8.612;2023-12-04T10:30:25;0.20;99.90
5723;DHT22;2886;49.722;8.612;2023-12-04T10:32:55;0.10;99.90
5723;DHT22;2886;49.722;8.612;2023-12-04T10:35:21;0.20;99.90
5723;DHT22;2886;49.722;8.612;2023-12-04T10:37:48;0.30;99.90
5723;DHT22;2886;49.722;8.612;2023-12-04T10:40:26;0.40;99.90
5723;DHT22;2886;49.722;8.612;2023-12-04T10:43:16;0.50;99.90
5723;DHT22;2886;49.722;8.612;2023-12-04T10:45:44;0.60;99.90
5723;DHT22;2886;49.722;8.612;2023-12-04T10:48:11;0.70;99.90
5723;DHT22;2886;49.722;8.612;2023-12-04T10:50:38;0.70;99.90
5723;DHT22;2886;49.722;8.612;2023-12-04T10:53:08;0.70;99.90
5723;DHT22;2886;49.722;8.612;2023-12-04T10:55:35;0.70;99.90
5723;DHT22;2886;49.722;8.612;2023-12-04T10:58:06;0.60;99.90
5723;DHT22;2886;49.722;8.612;2023-12-04T11:00:37;0.50;99.90
5723;DHT22;2886;49.722;8.612;2023-12-04T11:03:08;0.30;99.90
5723;DHT22;2886;49.722;8.612;2023-12-04T11:05:39;0.30;99.90
5723;DHT22;2886;49.722;8.612;2023-12-04T11:08:16;0.30;99.90
5723;DHT22;2886;49.722;8.612;2023-12-04T11:10:55;0.40;99.90
5723;DHT22;2886;49.722;8.612;2023-12-04T11:13:26;0.40;99.90
5723;DHT22;2886;49.722;8.612;2023-12-04T11:16:02;0.40;99.90
5723;DHT22;2886;49.722;8.612;2023-12-04T11:18:31;0.30;99.90
5723;DHT22;2886;49.722;8.612;2023-12-04T11:21:11;0.20;99.90
5723;DHT22;2886;49.722;8.612;2023-12-04T11:23:37;0.20;99.90
5723;DHT22;2886;49.722;8.612;2023-12-04T11:26:04;0.10;99.90
5723;DHT22;2886;49.722;8.612;2023-12-04T11:28:31;0.00;99.90
5723;DHT22;2886;49.722;8.612;2023-12-04T11:30:57;-0.10;99.90
5723;DHT22;2886;49.722;8.612;2023-12-04T11:33:23;-0.20;99.90
5723;DHT22;2886;49.722;8.612;2023-12-04T11:35:50;-0.20;99.90
5723;DHT22;2886;49.722;8.612;2023-12-04T11:38:19;-0.20;99.90
5723;DHT22;2886;49.722;8.612;2023-12-04T11:40:46;-0.20;99.90
5723;DHT22;2886;49.722;8.612;2023-12-04T11:43:26;-0.20;99.90
5723;DHT22;2886;49.722;8.612;2023-12-04T11:45:52;-0.20;99.90
5723;DHT22;2886;49.722;8.612;2023-12-04T11:48:22;-0.30;99.90
5723;DHT22;2886;49.722;8.612;2023-12-04T11:50:51;-0.20;99.90
5723;DHT22;2886;49.722;8.612;2023-12-04T11:53:17;-0.20;99.90
5723;DHT22;2886;49.722;8.612;2023-12-04T11:55:43;-0.20;99.90
5723;DHT22;2886;49.722;8.612;2023-12-04T11:58:09;-0.20;99.90
5723;DHT22;2886;49.722;8.612;2023-12-04T12:00:36;-0.30;99.90
5723;DHT22;2886;49.722;8.612;2023-12-04T12:03:06;-0.20;99.90
5723;DHT22;2886;49.722;8.612;2023-12-04T12:05:35;-0.20;99.90
5723;DHT22;2886;49.722;8.612;2023-12-04T12:08:05;-0.10;99.90
5723;DHT22;2886;49.722;8.612;2023-12-04T12:10:31;-0.10;99.90
5723;DHT22;2886;49.722;8.612;2023-12-04T12:12:57;0.00;99.90
5723;DHT22;2886;49.722;8.612;2023-12-04T12:15:24;0.10;99.90
5723;DHT22;2886;49.722;8.612;2023-12-04T12:17:50;0.10;99.90
5723;DHT22;2886;49.722;8.612;2023-12-04T12:20:17;0.10;99.90
5723;DHT22;2886;49.722;8.612;2023-12-04T12:22:43;0.20;99.90
5723;DHT22;2886;49.722;8.612;2023-12-04T12:25:10;0.20;99.90
5723;DHT22;2886;49.722;8.612;2023-12-04T12:27:37;0.20;99.90
5723;DHT22;2886;49.722;8.612;2023-12-04T12:30:03;0.20;99.90
5723;DHT22;2886;49.722;8.612;2023-12-04T12:32:31;0.20;99.90
5723;DHT22;2886;49.722;8.612;2023-12-04T12:34:56;0.10;99.90
5723;DHT22;2886;49.722;8.612;2023-12-04T12:37:22;0.10;99.90
5723;DHT22;2886;49.722;8.612;2023-12-04T12:39:48;0.00;99.90
5723;DHT22;2886;49.722;8.612;2023-12-04T12:42:34;0.00;99.90
5723;DHT22;2886;49.722;8.612;2023-12-04T12:45:01;0.00;99.90
5723;DHT22;2886;49.722;8.612;2023-12-04T12:47:27;-0.10;99.90
5723;DHT22;2886;49.722;8.612;2023-12-04T12:49:54;-0.10;99.90
5723;DHT22;2886;49.722;8.612;2023-12-04T12:52:19;-0.10;99.90
5723;DHT22;2886;49.722;8.612;2023-12-04T12:54:45;-0.10;99.90
5723;DHT22;2886;49.722;8.612;2023-12-04T12:57:11;-0.10;99.90
5723;DHT22;2886;49.722;8.612;2023-12-04T12:59:38;-0.10;99.90
5723;DHT22;2886;49.722;8.612;2023-12-04T13:02:05;0.00;99.90
5723;DHT22;2886;49.722;8.612;2023-12-04T13:04:34;0.00;99.90
5723;DHT22;2886;49.722;8.612;2023-12-04T13:07:00;0.10;99.90
5723;DHT22;2886;49.722;8.612;2023-12-04T13:09:26;0.10;99.90
5723;DHT22;2886;49.722;8.612;2023-12-04T13:11:51;0.10;99.90
5723;DHT22;2886;49.722;8.612;2023-12-04T13:14:17;0.10;99.90
5723;DHT22;2886;49.722;8.612;2023-12-04T13:16:43;0.20;99.90
5723;DHT22;2886;49.722;8.612;2023-12-04T13:19:08;0.20;99.90
5723;DHT22;2886;49.722;8.612;2023-12-04T13:21:34;0.20;99.90
5723;DHT22;2886;49.722;8.612;2023-12-04T13:24:00;0.20;99.90
5723;DHT22;2886;49.722;8.612;2023-12-04T13:26:25;0.20;99.90
5723;DHT22;2886;49.722;8.612;2023-12-04T13:28:51;0.20;99.90
5723;DHT22;2886;49.722;8.612;2023-12-04T13:31:17;0.20;99.90
5723;DHT22;2886;49.722;8.612;2023-12-04T13:33:42;0.20;99.90
5723;DHT22;2886;49.722;8.612;2023-12-04T13:36:09;0.30;99.90
5723;DHT22;2886;49.722;8.612;2023-12-04T13:38:35;0.30;99.90
5723;DHT22;2886;49.722;8.612;2023-12-04T13:41:01;0.30;99.90
5723;DHT22;2886;49.722;8.612;2023-12-04T13:43:44;0.30;99.90
5723;DHT22;2886;49.722;8.612;2023-12-04T13:46:16;0.40;99.90
5723;DHT22;2886;49.722;8.612;2023-12-04T13:48:41;0.40;99.90
5723;DHT22;2886;49.722;8.612;2023-12-04T13:51:10;0.50;99.90
5723;DHT22;2886;49.722;8.612;2023-12-04T13:53:36;0.60;99.90
5723;DHT22;2886;49.722;8.612;2023-12-04T13:56:10;0.60;99.90
5723;DHT22;2886;49.722;8.612;2023-12-04T13:58:53;0.40;99.90
5723;DHT22;2886;49.722;8.612;2023-12-04T14:01:25;0.40;99.90
5723;DHT22;2886;49.722;8.612;2023-12-04T14:03:55;0.40;99.90
5723;DHT22;2886;49.722;8.612;2023-12-04T14:06:30;0.40;99.90
5723;DHT22;2886;49.722;8.612;2023-12-04T14:08:58;0.50;99.90
5723;DHT22;2886;49.722;8.612;2023-12-04T14:11:24;0.50;99.90
5723;DHT22;2886;49.722;8.612;2023-12-04T14:13:49;0.40;99.90
5723;DHT22;2886;49.722;8.612;2023-12-04T14:16:15;0.50;99.90
5723;DHT22;2886;49.722;8.612;2023-12-04T14:18:41;0.50;99.90
5723;DHT22;2886;49.722;8.612;2023-12-04T14:21:08;0.40;99.90
5723;DHT22;2886;49.722;8.612;2023-12-04T14:23:34;0.40;99.90
5723;DHT22;2886;49.722;8.612;2023-12-04T14:26:00;0.30;99.90
5723;DHT22;2886;49.722;8.612;2023-12-04T14:28:27;0.30;99.90
5723;DHT22;2886;49.722;8.612;2023-12-04T14:30:52;0.40;99.90
5723;DHT22;2886;49.722;8.612;2023-12-04T14:33:18;0.40;99.90
5723;DHT22;2886;49.722;8.612;2023-12-04T14:35:43;0.40;99.90
5723;DHT22;2886;49.722;8.612;2023-12-04T14:38:09;0.40;99.90
5723;DHT22;2886;49.722;8.612;2023-12-04T14:40:35;0.50;99.90
5723;DHT22;2886;49.722;8.612;2023-12-04T14:43:00;0.40;99.90
5723;DHT22;2886;49.722;8.612;2023-12-04T14:45:26;0.30;99.90
5723;DHT22;2886;49.722;8.612;2023-12-04T14:47:52;0.30;99.90
5723;DHT22;2886;49.722;8.612;2023-12-04T14:50:21;0.30;99.90
5723;DHT22;2886;49.722;8.612;2023-12-04T14:52:46;0.20;99.90
5723;DHT22;2886;49.722;8.612;2023-12-04T14:55:16;0.20;99.90
5723;DHT22;2886;49.722;8.612;2023-12-04T14:57:48;0.20;99.90
5723;DHT22;2886;49.722;8.612;2023-12-04T15:00:39;0.10;99.90
5723;DHT22;2886;49.722;8.612;2023-12-04T15:03:37;0.10;99.90
5723;DHT22;2886;49.722;8.612;2023-12-04T15:06:31;0.20;99.90
5723;DHT22;2886;49.722;8.612;2023-12-04T15:08:59;0.20;99.90
5723;DHT22;2886;49.722;8.612;2023-12-04T15:11:43;0.20;99.90
5723;DHT22;2886;49.722;8.612;2023-12-04T15:14:27;0.30;99.90
5723;DHT22;2886;49.722;8.612;2023-12-04T15:17:03;0.30;99.90
5723;DHT22;2886;49.722;8.612;2023-12-04T15:19:43;0.30;99.90
5723;DHT22;2886;49.722;8.612;2023-12-04T15:22:27;0.30;99.90
5723;DHT22;2886;49.722;8.612;2023-12-04T15:24:53;0.30;99.90
5723;DHT22;2886;49.722;8.612;2023-12-04T15:27:19;0.30;99.90
5723;DHT22;2886;49.722;8.612;2023-12-04T15:29:45;0.30;99.90
5723;DHT22;2886;49.722;8.612;2023-12-04T15:32:10;0.30;99.90
5723;DHT22;2886;49.722;8.612;2023-12-04T15:34:36;0.30;99.90
5723;DHT22;2886;49.722;8.612;2023-12-04T15:37:01;0.20;99.90
5723;DHT22;2886;49.722;8.612;2023-12-04T15:39:27;0.30;99.90
5723;DHT22;2886;49.722;8.612;2023-12-04T15:41:53;0.30;99.90
5723;DHT22;2886;49.722;8.612;2023-12-04T15:44:18;0.30;99.90
5723;DHT22;2886;49.722;8.612;2023-12-04T15:46:44;0.30;99.90
5723;DHT22;2886;49.722;8.612;2023-12-04T15:49:10;0.20;99.90
5723;DHT22;2886;49.722;8.612;2023-12-04T15:51:36;0.20;99.90
5723;DHT22;2886;49.722;8.612;2023-12-04T15:54:03;0.20;99.90
5723;DHT22;2886;49.722;8.612;2023-12-04T15:56:29;0.20;99.90
5723;DHT22;2886;49.722;8.612;2023-12-04T15:58:54;0.30;99.90
5723;DHT22;2886;49.722;8.612;2023-12-04T16:01:20;0.40;99.90
5723;DHT22;2886;49.722;8.612;2023-12-04T16:03:46;0.40;99.90
5723;DHT22;2886;49.722;8.612;2023-12-04T16:06:11;0.40;99.90